createdAt,value
2022-09-23T00:02:25.939Z,15.80
2022-09-23T00:04:52.699Z,15.70
2022-09-23T00:07:19.388Z,15.70
2022-09-23T00:09:46.817Z,15.70
2022-09-23T00:12:13.561Z,15.70
2022-09-23T00:14:40.262Z,15.70
2022-09-23T00:17:07.091Z,15.70
2022-09-23T00:19:33.834Z,15.70
2022-09-23T00:22:01.007Z,15.70
2022-09-23T00:24:32.319Z,15.70
2022-09-23T00:26:59.895Z,15.70
2022-09-23T00:29:26.824Z,15.70
2022-09-23T00:31:53.550Z,15.80
2022-09-23T00:34:20.437Z,15.80
2022-09-23T00:36:47.092Z,15.80
2022-09-23T00:39:14.006Z,15.70
2022-09-23T00:41:41.414Z,15.80
2022-09-23T00:44:43.990Z,15.80
2022-09-23T00:47:21.865Z,15.80
2022-09-23T00:50:01.796Z,15.80
2022-09-23T00:52:28.545Z,15.80
2022-09-23T00:54:55.439Z,15.70
2022-09-23T00:57:22.149Z,15.70
2022-09-23T00:59:49.623Z,15.70
2022-09-23T01:02:16.443Z,15.70
2022-09-23T01:04:43.295Z,15.70
2022-09-23T01:07:10.597Z,15.60
2022-09-23T01:09:37.434Z,15.50
2022-09-23T01:12:14.762Z,15.50
2022-09-23T01:14:59.045Z,15.50
2022-09-23T01:17:28.504Z,15.50
2022-09-23T01:20:27.345Z,15.40
2022-09-23T01:23:11.897Z,15.40
2022-09-23T01:25:41.342Z,15.30
2022-09-23T01:28:33.496Z,15.30
2022-09-23T01:31:13.315Z,15.30
2022-09-23T01:33:41.840Z,15.20
2022-09-23T01:36:42.424Z,15.30
2022-09-23T01:39:13.241Z,15.20
2022-09-23T01:42:09.998Z,15.20
2022-09-23T01:44:48.651Z,15.20
2022-09-23T01:47:17.321Z,15.20
2022-09-23T01:49:57.604Z,15.30
2022-09-23T01:52:41.998Z,15.30
2022-09-23T01:55:16.280Z,15.30
2022-09-23T01:58:15.545Z,15.30
2022-09-23T02:00:46.111Z,15.30
2022-09-23T02:03:18.291Z,15.30
2022-09-23T02:05:54.024Z,15.30
2022-09-23T02:08:35.915Z,15.30
2022-09-23T02:11:07.783Z,15.30
2022-09-23T02:13:40.430Z,15.30
2022-09-23T02:16:28.222Z,15.30
2022-09-23T02:19:15.609Z,15.30
2022-09-23T02:21:45.261Z,15.30
2022-09-23T02:24:20.034Z,15.30
2022-09-23T02:26:56.027Z,15.30
2022-09-23T02:29:29.399Z,15.30
2022-09-23T02:32:05.071Z,15.30
2022-09-23T02:34:43.980Z,15.30
2022-09-23T02:37:21.284Z,15.40
2022-09-23T02:40:07.932Z,15.30
2022-09-23T02:42:47.713Z,15.30
2022-09-23T02:45:14.687Z,15.30
2022-09-23T02:47:42.243Z,15.30
2022-09-23T02:50:09.553Z,15.30
2022-09-23T02:52:38.814Z,15.30
2022-09-23T02:55:06.620Z,15.30
2022-09-23T02:57:34.181Z,15.30
2022-09-23T03:00:02.275Z,15.30
2022-09-23T03:03:00.984Z,15.30
2022-09-23T03:05:30.307Z,15.30
2022-09-23T03:08:19.233Z,15.30
2022-09-23T03:10:54.717Z,15.30
2022-09-23T03:13:40.205Z,15.30
2022-09-23T03:16:25.773Z,15.30
2022-09-23T03:19:04.847Z,15.30
2022-09-23T03:21:34.219Z,15.20
2022-09-23T03:24:01.981Z,15.20
2022-09-23T03:26:33.638Z,15.20
2022-09-23T03:29:02.788Z,15.20
2022-09-23T03:31:30.183Z,15.30
2022-09-23T03:33:58.930Z,15.30
2022-09-23T03:36:48.709Z,15.30
2022-09-23T03:39:20.034Z,15.30
2022-09-23T03:41:50.842Z,15.30
2022-09-23T03:44:18.163Z,15.30
2022-09-23T03:46:49.827Z,15.30
2022-09-23T03:49:27.669Z,15.30
2022-09-23T03:51:55.377Z,15.30
2022-09-23T03:54:22.296Z,15.30
2022-09-23T03:56:49.064Z,15.30
2022-09-23T03:59:16.097Z,15.30
2022-09-23T04:01:43.308Z,15.30
2022-09-23T04:04:10.442Z,15.30
2022-09-23T04:06:37.190Z,15.30
2022-09-23T04:09:04.001Z,15.30
2022-09-23T04:11:30.820Z,15.30
2022-09-23T04:13:57.455Z,15.30
2022-09-23T04:16:24.613Z,15.30
2022-09-23T04:18:51.399Z,15.30
2022-09-23T04:21:18.101Z,15.30
2022-09-23T04:23:46.391Z,15.30
2022-09-23T04:26:13.554Z,15.30
2022-09-23T04:28:40.345Z,15.30
2022-09-23T04:31:08.184Z,15.30
2022-09-23T04:33:35.120Z,15.30
2022-09-23T04:36:01.858Z,15.30
2022-09-23T04:38:29.081Z,15.30
2022-09-23T04:40:55.812Z,15.20
2022-09-23T04:43:23.402Z,15.30
2022-09-23T04:46:03.923Z,15.20
2022-09-23T04:48:30.562Z,15.20
2022-09-23T04:51:09.590Z,15.20
2022-09-23T04:53:36.960Z,15.20
2022-09-23T04:56:09.845Z,15.20
2022-09-23T04:58:36.764Z,15.20
2022-09-23T05:01:27.145Z,15.20
2022-09-23T05:03:57.237Z,15.20
2022-09-23T05:06:24.483Z,15.20
2022-09-23T05:08:53.010Z,15.20
2022-09-23T05:11:19.768Z,15.30
2022-09-23T05:13:50.325Z,15.30
2022-09-23T05:16:17.306Z,15.30
2022-09-23T05:18:44.404Z,15.30
2022-09-23T05:21:11.951Z,15.30
2022-09-23T05:23:38.767Z,15.30
2022-09-23T05:26:12.231Z,15.30
2022-09-23T05:28:39.443Z,15.30
2022-09-23T05:31:20.029Z,15.30
2022-09-23T05:34:00.994Z,15.30
2022-09-23T05:36:28.725Z,15.40
2022-09-23T05:38:57.914Z,15.40
2022-09-23T05:41:25.268Z,15.40
2022-09-23T05:43:52.428Z,15.40
2022-09-23T05:46:23.929Z,15.40
2022-09-23T05:48:50.766Z,15.40
2022-09-23T05:51:20.089Z,15.40
2022-09-23T05:53:47.631Z,15.50
2022-09-23T05:56:15.474Z,15.50
2022-09-23T05:58:42.223Z,15.50
2022-09-23T06:01:12.744Z,15.50
2022-09-23T06:03:39.964Z,15.60
2022-09-23T06:06:07.500Z,15.60
2022-09-23T06:08:34.963Z,15.60
2022-09-23T06:11:09.646Z,15.60
2022-09-23T06:13:38.203Z,15.60
2022-09-23T06:16:09.848Z,15.60
2022-09-23T06:18:41.215Z,15.70
2022-09-23T06:21:08.125Z,15.60
2022-09-23T06:23:38.496Z,15.60
2022-09-23T06:26:07.089Z,15.60
2022-09-23T06:28:35.574Z,15.50
2022-09-23T06:31:04.265Z,15.50
2022-09-23T06:33:36.480Z,15.50
2022-09-23T06:36:05.352Z,15.50
2022-09-23T06:38:34.103Z,15.40
2022-09-23T06:41:01.956Z,15.40
2022-09-23T06:43:28.675Z,15.40
2022-09-23T06:46:03.712Z,15.40
2022-09-23T06:48:31.439Z,15.50
2022-09-23T06:51:05.160Z,15.50
2022-09-23T06:53:32.171Z,15.50
2022-09-23T06:56:00.354Z,15.60
2022-09-23T06:58:27.664Z,15.50
2022-09-23T07:00:54.762Z,15.50
2022-09-23T07:03:22.293Z,15.50
2022-09-23T07:05:49.124Z,15.50
2022-09-23T07:08:16.458Z,15.40
2022-09-23T07:10:43.227Z,15.40
2022-09-23T07:13:13.007Z,15.40
2022-09-23T07:15:43.032Z,15.40
2022-09-23T07:18:09.781Z,15.50
2022-09-23T07:20:36.522Z,15.50
2022-09-23T07:23:03.177Z,15.50
2022-09-23T07:25:30.008Z,15.50
2022-09-23T07:27:56.729Z,15.60
2022-09-23T07:30:25.505Z,15.60
2022-09-23T07:32:53.209Z,15.60
2022-09-23T07:35:19.944Z,15.60
2022-09-23T07:37:47.314Z,15.60
2022-09-23T07:40:14.215Z,15.60
2022-09-23T07:42:41.191Z,15.70
2022-09-23T07:45:09.054Z,15.70
2022-09-23T07:47:35.984Z,15.80
2022-09-23T07:50:02.680Z,15.90
2022-09-23T07:52:29.417Z,15.80
2022-09-23T07:54:56.151Z,15.80
2022-09-23T07:57:22.895Z,15.80
2022-09-23T07:59:49.624Z,15.70
2022-09-23T08:02:16.437Z,15.80
2022-09-23T08:04:43.274Z,15.70
2022-09-23T08:07:10.003Z,15.80
2022-09-23T08:09:41.516Z,15.80
2022-09-23T08:12:15.892Z,15.80
2022-09-23T08:14:43.316Z,15.90
2022-09-23T08:17:11.647Z,15.90
2022-09-23T08:19:38.366Z,15.90
2022-09-23T08:22:05.165Z,15.90
2022-09-23T08:24:32.223Z,15.80
2022-09-23T08:26:59.064Z,15.90
2022-09-23T08:29:26.351Z,15.90
2022-09-23T08:31:53.091Z,15.90
2022-09-23T08:34:20.484Z,15.90
2022-09-23T08:36:47.594Z,15.90
2022-09-23T08:39:15.987Z,16.00
2022-09-23T08:42:17.583Z,16.10
2022-09-23T08:44:51.039Z,16.20
2022-09-23T08:47:27.922Z,16.30
2022-09-23T08:50:06.556Z,16.30
2022-09-23T08:52:36.593Z,16.40
2022-09-23T08:55:03.765Z,16.50
2022-09-23T08:58:14.034Z,16.50
2022-09-23T09:00:41.500Z,16.50
2022-09-23T09:03:20.208Z,16.50
2022-09-23T09:05:53.938Z,16.50
2022-09-23T09:08:27.026Z,16.50
2022-09-23T09:10:54.408Z,16.60
2022-09-23T09:13:33.827Z,16.70
2022-09-23T09:16:11.386Z,16.70
2022-09-23T09:18:44.093Z,16.80
2022-09-23T09:21:14.157Z,16.90
2022-09-23T09:23:55.906Z,16.90
2022-09-23T09:26:29.392Z,17.00
2022-09-23T09:29:23.711Z,17.00
2022-09-23T09:31:57.574Z,16.90
2022-09-23T09:34:37.368Z,16.90
2022-09-23T09:37:20.351Z,16.90
2022-09-23T09:39:47.102Z,16.90
2022-09-23T09:42:39.065Z,16.90
2022-09-23T09:45:13.063Z,16.80
2022-09-23T09:47:56.616Z,16.50
2022-09-23T09:50:43.855Z,16.30
2022-09-23T09:53:20.281Z,16.30
2022-09-23T09:55:48.389Z,16.30
2022-09-23T09:58:16.514Z,16.40
2022-09-23T10:00:44.583Z,16.40
2022-09-23T10:03:14.430Z,16.50
2022-09-23T10:05:44.833Z,16.40
2022-09-23T10:08:29.373Z,16.50
2022-09-23T10:10:59.214Z,16.60
2022-09-23T10:13:26.579Z,16.60
2022-09-23T10:15:56.717Z,16.60
2022-09-23T10:18:28.749Z,16.70
2022-09-23T10:21:26.930Z,16.70
2022-09-23T10:23:57.978Z,16.60
2022-09-23T10:26:39.728Z,16.70
2022-09-23T10:29:39.407Z,16.70
2022-09-23T10:32:21.417Z,16.80
2022-09-23T10:34:53.943Z,16.70
2022-09-23T10:37:33.953Z,16.80
2022-09-23T10:40:19.646Z,16.80
2022-09-23T10:43:32.490Z,16.90
2022-09-23T10:46:20.259Z,17.00
2022-09-23T10:49:10.079Z,17.10
2022-09-23T10:52:31.922Z,17.00
2022-09-23T10:55:10.518Z,17.00
2022-09-23T10:57:46.366Z,16.90
2022-09-23T11:00:32.541Z,17.00
2022-09-23T11:03:28.199Z,17.00
2022-09-23T11:06:04.042Z,17.10
2022-09-23T11:08:56.262Z,17.20
2022-09-23T11:11:34.030Z,17.40
2022-09-23T11:14:28.976Z,17.60
2022-09-23T11:17:27.096Z,17.80
2022-09-23T11:20:25.217Z,18.10
2022-09-23T11:23:23.160Z,18.20
2022-09-23T11:26:12.533Z,18.20
2022-09-23T11:29:10.212Z,18.10
2022-09-23T11:32:14.710Z,18.10
2022-09-23T11:34:55.023Z,18.00
2022-09-23T11:37:30.550Z,17.90
2022-09-23T11:40:01.829Z,17.70
2022-09-23T11:42:36.479Z,17.70
2022-09-23T11:45:16.081Z,17.80
2022-09-23T11:47:46.637Z,17.70
2022-09-23T11:50:18.991Z,17.60
2022-09-23T11:52:48.614Z,17.70
2022-09-23T11:55:31.758Z,17.70
2022-09-23T11:58:22.132Z,17.80
2022-09-23T12:01:13.623Z,17.90
2022-09-23T12:03:52.064Z,18.10
2022-09-23T12:06:41.603Z,18.20
2022-09-23T12:09:27.222Z,18.20
2022-09-23T12:12:11.951Z,18.30
2022-09-23T12:15:01.625Z,18.40
2022-09-23T12:17:41.711Z,18.40
2022-09-23T12:20:14.370Z,18.40
2022-09-23T12:22:59.599Z,18.50
2022-09-23T12:25:35.091Z,18.40
2022-09-23T12:28:16.720Z,18.40
2022-09-23T12:30:43.496Z,18.50
2022-09-23T12:33:24.485Z,18.60
2022-09-23T12:35:55.784Z,18.60
2022-09-23T12:38:48.640Z,18.70
2022-09-23T12:41:29.942Z,19.00
2022-09-23T12:44:00.220Z,19.30
2022-09-23T12:46:27.623Z,19.40
2022-09-23T12:49:03.605Z,19.40
2022-09-23T12:51:34.694Z,19.30
2022-09-23T12:54:04.465Z,19.00
2022-09-23T12:56:34.274Z,18.80
2022-09-23T12:59:10.181Z,18.70
2022-09-23T13:01:37.308Z,18.60
2022-09-23T13:04:23.169Z,18.80
2022-09-23T13:06:58.407Z,18.90
2022-09-23T13:09:32.163Z,19.10
2022-09-23T13:12:00.523Z,19.40
2022-09-23T13:14:27.879Z,19.80
2022-09-23T13:16:55.414Z,19.90
2022-09-23T13:19:28.221Z,19.90
2022-09-23T13:22:02.854Z,20.40
2022-09-23T13:24:36.699Z,20.60
2022-09-23T13:27:05.732Z,20.50
2022-09-23T13:29:56.200Z,20.30
2022-09-23T13:32:25.874Z,20.10
2022-09-23T13:35:02.070Z,20.10
2022-09-23T13:37:38.222Z,20.10
2022-09-23T13:40:23.876Z,20.30
2022-09-23T13:43:12.499Z,20.30
2022-09-23T13:45:43.177Z,20.40
2022-09-23T13:48:13.396Z,20.50
2022-09-23T13:50:42.230Z,20.40
2022-09-23T13:53:10.828Z,20.30
2022-09-23T13:55:38.936Z,20.10
2022-09-23T13:58:22.118Z,19.90
2022-09-23T14:00:49.343Z,19.80
2022-09-23T14:03:28.678Z,19.80
2022-09-23T14:06:00.163Z,19.80
2022-09-23T14:08:28.148Z,19.70
2022-09-23T14:10:55.303Z,19.80
2022-09-23T14:13:28.103Z,19.90
2022-09-23T14:15:58.186Z,19.90
2022-09-23T14:18:29.377Z,20.00
2022-09-23T14:20:56.141Z,20.10
2022-09-23T14:23:22.837Z,20.30
2022-09-23T14:25:49.651Z,20.60
2022-09-23T14:28:21.018Z,20.90
2022-09-23T14:30:48.231Z,20.90
2022-09-23T14:33:21.541Z,20.90
2022-09-23T14:35:53.615Z,20.70
2022-09-23T14:38:46.158Z,21.10
2022-09-23T14:41:23.906Z,21.20
2022-09-23T14:44:01.054Z,21.10
2022-09-23T14:46:33.045Z,20.70
2022-09-23T14:49:13.879Z,20.50
2022-09-23T14:51:55.352Z,20.30
2022-09-23T14:54:22.335Z,20.10
2022-09-23T14:56:49.036Z,20.20
2022-09-23T14:59:36.304Z,20.10
2022-09-23T15:02:22.176Z,20.00
2022-09-23T15:04:48.947Z,20.00
2022-09-23T15:07:19.073Z,20.00
2022-09-23T15:09:45.816Z,19.90
2022-09-23T15:12:14.737Z,19.90
2022-09-23T15:14:46.556Z,19.90
2022-09-23T15:17:24.094Z,20.00
2022-09-23T15:19:52.590Z,20.40
2022-09-23T15:22:19.347Z,20.70
2022-09-23T15:24:46.420Z,20.90
2022-09-23T15:27:25.560Z,21.00
2022-09-23T15:29:52.920Z,21.10
2022-09-23T15:32:20.114Z,21.00
2022-09-23T15:34:49.220Z,21.10
2022-09-23T15:37:15.962Z,21.00
2022-09-23T15:39:42.900Z,20.90
2022-09-23T15:42:10.244Z,20.80
2022-09-23T15:44:37.959Z,20.60
2022-09-23T15:47:04.731Z,20.50
2022-09-23T15:49:39.133Z,20.60
2022-09-23T15:52:07.030Z,20.70
2022-09-23T15:54:33.855Z,21.50
2022-09-23T15:57:01.251Z,22.70
2022-09-23T15:59:28.953Z,23.30
2022-09-23T16:01:56.284Z,22.90
2022-09-23T16:04:23.686Z,22.40
2022-09-23T16:06:50.414Z,22.00
2022-09-23T16:09:17.134Z,21.60
2022-09-23T16:11:47.464Z,21.20
2022-09-23T16:14:15.713Z,20.80
2022-09-23T16:16:44.876Z,20.60
2022-09-23T16:19:12.439Z,20.30
2022-09-23T16:21:40.753Z,20.10
2022-09-23T16:24:17.913Z,19.90
2022-09-23T16:26:45.189Z,19.70
2022-09-23T16:29:11.847Z,19.40
2022-09-23T16:31:39.210Z,19.30
2022-09-23T16:34:06.012Z,19.20
2022-09-23T16:36:41.431Z,19.10
2022-09-23T16:39:10.333Z,19.10
2022-09-23T16:41:37.289Z,19.00
2022-09-23T16:44:05.605Z,18.90
2022-09-23T16:46:32.393Z,18.70
2022-09-23T16:48:59.363Z,18.60
2022-09-23T16:51:30.569Z,18.60
2022-09-23T16:53:58.230Z,18.50
2022-09-23T16:56:28.844Z,18.50
2022-09-23T16:58:56.325Z,18.50
2022-09-23T17:01:46.243Z,18.50
2022-09-23T17:04:14.096Z,18.50
2022-09-23T17:06:51.180Z,18.40
2022-09-23T17:09:22.094Z,18.40
2022-09-23T17:12:15.579Z,18.30
2022-09-23T17:14:43.745Z,18.20
2022-09-23T17:17:10.964Z,18.10
2022-09-23T17:19:38.239Z,18.10
2022-09-23T17:22:05.462Z,18.00
2022-09-23T17:24:32.144Z,18.00
2022-09-23T17:26:58.818Z,17.90
2022-09-23T17:29:26.927Z,17.80
2022-09-23T17:31:54.358Z,17.70
2022-09-23T17:34:24.110Z,17.60
2022-09-23T17:36:50.854Z,17.50
2022-09-23T17:39:17.590Z,17.40
2022-09-23T17:41:45.456Z,17.30
2022-09-23T17:44:12.451Z,17.30
2022-09-23T17:46:40.246Z,17.20
2022-09-23T17:49:08.352Z,17.20
2022-09-23T17:51:35.462Z,17.10
2022-09-23T17:54:02.203Z,17.00
2022-09-23T17:56:31.544Z,17.00
2022-09-23T17:59:00.521Z,16.90
2022-09-23T18:01:27.481Z,16.90
2022-09-23T18:03:58.623Z,16.80
2022-09-23T18:06:31.578Z,16.80
2022-09-23T18:08:58.487Z,16.80
2022-09-23T18:11:27.176Z,16.80
2022-09-23T18:13:55.844Z,16.80
2022-09-23T18:16:24.310Z,16.70
2022-09-23T18:18:58.417Z,16.70
2022-09-23T18:21:26.695Z,16.60
2022-09-23T18:23:53.503Z,16.60
2022-09-23T18:26:21.721Z,16.50
2022-09-23T18:28:48.894Z,16.50
2022-09-23T18:31:15.767Z,16.40
2022-09-23T18:33:43.097Z,16.40
2022-09-23T18:36:09.870Z,16.30
2022-09-23T18:38:37.152Z,16.40
2022-09-23T18:41:03.896Z,16.30
2022-09-23T18:43:40.068Z,16.40
2022-09-23T18:46:11.850Z,16.40
2022-09-23T18:48:57.468Z,16.40
2022-09-23T18:51:26.239Z,16.40
2022-09-23T18:53:57.730Z,16.40
2022-09-23T18:56:37.214Z,16.40
2022-09-23T18:59:06.200Z,16.40
2022-09-23T19:01:33.591Z,16.40
2022-09-23T19:04:02.349Z,16.50
2022-09-23T19:06:29.532Z,16.40
2022-09-23T19:08:56.407Z,16.40
2022-09-23T19:11:23.911Z,16.40
2022-09-23T19:13:58.322Z,16.40
2022-09-23T19:16:25.774Z,16.40
2022-09-23T19:18:52.857Z,16.40
2022-09-23T19:21:20.799Z,16.40
2022-09-23T19:23:53.099Z,16.40
2022-09-23T19:26:25.050Z,16.40
2022-09-23T19:28:55.923Z,16.40
2022-09-23T19:31:24.399Z,16.40
2022-09-23T19:33:56.516Z,16.30
2022-09-23T19:36:25.012Z,16.30
2022-09-23T19:38:59.592Z,16.30
2022-09-23T19:41:28.275Z,16.30
2022-09-23T19:43:55.212Z,16.30
2022-09-23T19:46:23.244Z,16.30
2022-09-23T19:48:50.869Z,16.30
2022-09-23T19:51:19.250Z,16.30
2022-09-23T19:53:46.654Z,16.20
2022-09-23T19:56:17.724Z,16.20
2022-09-23T19:58:47.334Z,16.20
2022-09-23T20:01:17.262Z,16.20
2022-09-23T20:03:44.868Z,16.20
2022-09-23T20:06:11.765Z,16.20
2022-09-23T20:08:38.708Z,16.10
2022-09-23T20:11:28.570Z,16.10
2022-09-23T20:14:00.927Z,16.10
2022-09-23T20:16:29.299Z,16.10
2022-09-23T20:18:56.487Z,16.00
2022-09-23T20:21:24.021Z,16.00
2022-09-23T20:23:51.208Z,16.00
2022-09-23T20:26:36.419Z,16.00
2022-09-23T20:29:03.903Z,16.00
2022-09-23T20:31:31.564Z,15.90
2022-09-23T20:33:58.909Z,15.90
2022-09-23T20:36:26.574Z,15.90
2022-09-23T20:38:54.567Z,15.90
2022-09-23T20:41:21.521Z,15.80
2022-09-23T20:43:51.133Z,15.80
2022-09-23T20:46:17.872Z,15.80
2022-09-23T20:48:46.422Z,15.70
2022-09-23T20:51:13.161Z,15.60
2022-09-23T20:53:40.025Z,15.60
2022-09-23T20:56:07.242Z,15.60
2022-09-23T20:58:36.499Z,15.60
2022-09-23T21:01:05.144Z,15.50
2022-09-23T21:03:32.530Z,15.50
2022-09-23T21:06:01.317Z,15.40
2022-09-23T21:08:30.571Z,15.40
2022-09-23T21:10:57.949Z,15.40
2022-09-23T21:13:25.099Z,15.40
2022-09-23T21:15:51.911Z,15.30
2022-09-23T21:18:22.407Z,15.30
2022-09-23T21:20:59.250Z,15.20
2022-09-23T21:23:30.825Z,15.20
2022-09-23T21:26:04.810Z,15.10
2022-09-23T21:28:35.434Z,15.10
2022-09-23T21:31:03.691Z,15.00
2022-09-23T21:33:31.079Z,15.00
2022-09-23T21:36:01.568Z,15.00
2022-09-23T21:38:28.241Z,14.90
2022-09-23T21:40:59.257Z,14.90
2022-09-23T21:43:27.493Z,14.90
2022-09-23T21:45:59.475Z,14.90
2022-09-23T21:48:57.571Z,14.90
2022-09-23T21:51:43.260Z,14.90
2022-09-23T21:54:15.745Z,14.80
2022-09-23T21:56:42.970Z,14.80
2022-09-23T21:59:09.802Z,14.80
2022-09-23T22:01:39.195Z,14.70
2022-09-23T22:04:10.724Z,14.60
2022-09-23T22:06:38.389Z,14.60
2022-09-23T22:09:10.745Z,14.50
2022-09-23T22:11:56.836Z,14.50
2022-09-23T22:14:25.981Z,14.40
2022-09-23T22:16:58.889Z,14.40
2022-09-23T22:19:27.007Z,14.40
2022-09-23T22:21:54.038Z,14.30
2022-09-23T22:24:20.787Z,14.30
2022-09-23T22:26:47.676Z,14.30
2022-09-23T22:29:33.850Z,14.20
2022-09-23T22:32:20.056Z,14.20
2022-09-23T22:34:50.523Z,14.20
2022-09-23T22:37:28.777Z,14.10
2022-09-23T22:39:55.894Z,14.00
2022-09-23T22:42:22.851Z,14.00
2022-09-23T22:44:50.165Z,14.00
2022-09-23T22:47:17.986Z,14.00
2022-09-23T22:49:45.753Z,13.90
2022-09-23T22:52:12.643Z,13.90
2022-09-23T22:54:39.417Z,13.90
2022-09-23T22:57:06.878Z,13.80
2022-09-23T22:59:33.781Z,13.80
2022-09-23T23:02:02.423Z,13.80
2022-09-23T23:04:29.996Z,13.70
2022-09-23T23:06:58.630Z,13.70
2022-09-23T23:09:25.420Z,13.70
2022-09-23T23:11:52.117Z,13.50
2022-09-23T23:14:18.970Z,13.50
2022-09-23T23:16:46.241Z,13.50
2022-09-23T23:19:14.545Z,13.50
2022-09-23T23:21:44.462Z,13.50
2022-09-23T23:24:24.214Z,13.40
2022-09-23T23:26:51.424Z,13.40
2022-09-23T23:29:19.185Z,13.30
2022-09-23T23:31:46.199Z,13.20
2022-09-23T23:34:17.610Z,13.20
2022-09-23T23:36:44.834Z,13.20
2022-09-23T23:39:12.243Z,13.10
2022-09-23T23:41:42.576Z,13.10
2022-09-23T23:44:11.710Z,13.00
2022-09-23T23:46:38.723Z,13.00
2022-09-23T23:49:06.858Z,12.90
2022-09-23T23:51:33.522Z,12.90
2022-09-23T23:54:00.371Z,12.90
2022-09-23T23:56:27.373Z,12.80
2022-09-23T23:58:58.325Z,12.70
